createdAt,value
2023-11-12T00:02:10.024Z,98523.77
2023-11-12T00:04:44.759Z,98521.98
2023-11-12T00:07:16.542Z,98521.80
2023-11-12T00:09:48.267Z,98520.23
2023-11-12T00:12:20.753Z,98520.25
2023-11-12T00:14:52.570Z,98520.72
2023-11-12T00:17:25.980Z,98520.16
2023-11-12T00:19:57.837Z,98523.67
2023-11-12T00:22:30.179Z,98521.59
2023-11-12T00:25:02.905Z,98522.35
2023-11-12T00:27:34.646Z,98523.11
2023-11-12T00:30:07.253Z,98520.72
2023-11-12T00:39:53.193Z,98520.84
2023-11-12T00:42:25.118Z,98521.98
2023-11-12T00:44:56.895Z,98521.04
2023-11-12T00:47:28.611Z,98519.64
2023-11-12T00:50:00.448Z,98524.46
2023-11-12T00:52:32.262Z,98520.61
2023-11-12T00:55:04.299Z,98524.44
2023-11-12T00:57:39.213Z,98523.73
2023-11-12T01:00:11.756Z,98517.25
2023-11-12T01:02:43.696Z,98514.66
2023-11-12T01:05:15.732Z,98515.02
2023-11-12T01:07:47.520Z,98510.52
2023-11-12T01:10:19.299Z,98513.86
2023-11-12T01:12:51.593Z,98514.80
2023-11-12T01:15:24.479Z,98513.92
2023-11-12T01:17:57.177Z,98512.00
2023-11-12T01:20:29.015Z,98514.77
2023-11-12T01:23:00.681Z,98509.96
2023-11-12T01:25:34.274Z,98511.73
2023-11-12T01:28:05.848Z,98509.92
2023-11-12T01:30:38.414Z,98506.73
2023-11-12T01:33:11.671Z,98504.92
2023-11-12T01:35:43.392Z,98507.92
2023-11-12T01:38:15.107Z,98508.80
2023-11-12T01:40:46.936Z,98512.11
2023-11-12T01:43:20.229Z,98513.66
2023-11-12T01:45:51.944Z,98515.14
2023-11-12T01:48:24.632Z,98518.38
2023-11-12T01:50:56.609Z,98515.11
2023-11-12T01:53:29.097Z,98514.35
2023-11-12T01:56:01.593Z,98513.60
2023-11-12T01:58:33.555Z,98509.09
2023-11-12T02:04:20.591Z,98506.34
2023-11-12T02:06:57.180Z,98511.25
2023-11-12T02:09:32.438Z,98507.27
2023-11-12T02:12:09.182Z,98509.27
2023-11-12T02:14:40.931Z,98500.30
2023-11-12T02:17:12.716Z,98506.58
2023-11-12T02:19:48.091Z,98509.67
2023-11-12T02:22:22.458Z,98510.05
2023-11-12T02:24:58.180Z,98501.18
2023-11-12T02:27:45.945Z,98506.16
2023-11-12T02:30:22.222Z,98503.52
2023-11-12T02:32:54.103Z,98503.65
2023-11-12T02:35:33.886Z,98504.61
2023-11-12T02:38:05.714Z,98501.22
2023-11-12T02:40:40.432Z,98503.25
2023-11-12T02:43:12.446Z,98503.54
2023-11-12T02:45:47.894Z,98502.84
2023-11-12T02:48:22.205Z,98500.00
2023-11-12T02:50:55.747Z,98498.55
2023-11-12T02:53:29.290Z,98499.91
2023-11-12T02:56:02.806Z,98494.80
2023-11-12T02:58:37.257Z,98507.76
2023-11-12T03:01:11.406Z,98508.00
2023-11-12T03:03:50.506Z,98509.96
2023-11-12T03:06:24.367Z,98509.36
2023-11-12T03:08:58.874Z,98508.19
2023-11-12T03:11:30.626Z,98511.07
2023-11-12T03:14:05.780Z,98503.14
2023-11-12T03:16:42.444Z,98499.61
2023-11-12T03:19:14.387Z,98502.40
2023-11-12T03:21:54.415Z,98500.98
2023-11-12T03:24:38.823Z,98499.44
2023-11-12T03:27:20.815Z,98500.38
2023-11-12T03:29:52.774Z,98502.20
2023-11-12T03:32:35.337Z,98501.02
2023-11-12T03:35:12.900Z,98502.64
2023-11-12T03:38:04.740Z,98498.95
2023-11-12T03:40:36.513Z,98506.67
2023-11-12T03:43:14.373Z,98505.55
2023-11-12T03:45:51.848Z,98507.06
2023-11-12T03:48:39.141Z,98502.45
2023-11-12T03:51:17.794Z,98499.59
2023-11-12T03:54:00.120Z,98500.20
2023-11-12T03:56:33.497Z,98502.37
2023-11-12T03:59:05.267Z,98504.35
2023-11-12T04:01:41.687Z,98503.67
2023-11-12T04:04:24.128Z,98500.89
2023-11-12T04:07:02.110Z,98498.17
2023-11-12T04:09:37.466Z,98499.23
2023-11-12T04:12:38.189Z,98500.55
2023-11-12T04:15:19.958Z,98499.98
2023-11-12T04:17:56.961Z,98500.23
2023-11-12T04:20:34.911Z,98496.61
2023-11-12T04:23:07.739Z,98500.27
2023-11-12T04:26:05.113Z,98497.86
2023-11-12T04:28:56.611Z,98494.64
2023-11-12T04:31:41.557Z,98492.06
2023-11-12T04:34:21.222Z,98487.89
2023-11-12T04:36:53.110Z,98488.23
2023-11-12T04:39:55.759Z,98494.27
2023-11-12T04:42:36.369Z,98498.90
2023-11-12T04:45:13.217Z,98493.09
2023-11-12T04:47:45.166Z,98489.06
2023-11-12T04:50:21.387Z,98498.60
2023-11-12T04:53:00.427Z,98499.01
2023-11-12T04:55:37.299Z,98497.86
2023-11-12T04:58:10.215Z,98498.88
2023-11-12T05:00:45.918Z,98500.61
2023-11-12T05:03:17.911Z,98500.84
2023-11-12T05:05:53.002Z,98498.71
2023-11-12T05:08:30.011Z,98503.15
2023-11-12T05:11:06.904Z,98499.08
2023-11-12T05:13:52.168Z,98500.16
2023-11-12T05:16:28.652Z,98499.13
2023-11-12T05:19:07.959Z,98497.98
2023-11-12T05:21:46.912Z,98498.02
2023-11-12T05:24:26.758Z,98499.83
2023-11-12T05:27:03.799Z,98504.17
2023-11-12T05:29:37.700Z,98510.29
2023-11-12T05:32:15.780Z,98512.05
2023-11-12T05:34:58.569Z,98513.09
2023-11-12T05:37:35.141Z,98516.17
2023-11-12T05:40:13.577Z,98515.94
2023-11-12T05:42:49.674Z,98520.36
2023-11-12T05:45:21.476Z,98523.59
2023-11-12T05:47:59.137Z,98526.80
2023-11-12T05:50:33.873Z,98529.10
2023-11-12T05:53:08.135Z,98535.23
2023-11-12T05:55:42.160Z,98538.39
2023-11-12T05:58:14.175Z,98532.64
2023-11-12T06:00:54.842Z,98542.02
2023-11-12T06:03:37.995Z,98546.67
2023-11-12T06:06:13.049Z,98538.47
2023-11-12T06:08:44.866Z,98540.67
2023-11-12T06:11:22.175Z,98539.61
2023-11-12T06:13:54.822Z,98535.48
2023-11-12T06:16:26.525Z,98530.84
2023-11-12T06:19:03.996Z,98541.76
2023-11-12T06:21:38.546Z,98543.53
2023-11-12T06:24:10.551Z,98552.53
2023-11-12T06:26:46.844Z,98553.10
2023-11-12T06:29:25.201Z,98549.85
2023-11-12T06:32:01.418Z,98550.33
2023-11-12T06:34:42.573Z,98552.27
2023-11-12T06:37:14.248Z,98554.05
2023-11-12T06:39:47.948Z,98554.19
2023-11-12T06:42:19.708Z,98551.63
2023-11-12T06:44:56.100Z,98552.52
2023-11-12T06:47:27.885Z,98548.17
2023-11-12T06:50:07.248Z,98554.17
2023-11-12T06:52:51.406Z,98559.61
2023-11-12T06:55:34.217Z,98555.86
2023-11-12T06:58:08.135Z,98557.31
2023-11-12T07:00:43.031Z,98557.67
2023-11-12T07:03:20.345Z,98556.10
2023-11-12T07:05:56.752Z,98551.75
2023-11-12T07:08:34.070Z,98550.91
2023-11-12T07:11:10.750Z,98549.91
2023-11-12T07:13:44.314Z,98556.52
2023-11-12T07:16:19.700Z,98556.88
2023-11-12T07:19:14.983Z,98555.96
2023-11-12T07:22:06.946Z,98553.77
2023-11-12T07:25:01.265Z,98556.73
2023-11-12T07:27:46.318Z,98558.07
2023-11-12T07:30:18.658Z,98557.86
2023-11-12T07:32:50.666Z,98557.23
2023-11-12T07:35:22.681Z,98558.38
2023-11-12T07:37:54.395Z,98561.27
2023-11-12T07:40:28.240Z,98563.52
2023-11-12T07:42:59.981Z,98569.92
2023-11-12T07:45:38.144Z,98573.92
2023-11-12T07:48:12.705Z,98574.77
2023-11-12T07:50:44.446Z,98575.10
2023-11-12T07:53:16.150Z,98574.61
2023-11-12T07:55:47.930Z,98575.68
2023-11-12T07:58:20.578Z,98580.42
2023-11-12T08:00:52.383Z,98575.38
2023-11-12T08:03:24.198Z,98574.11
2023-11-12T08:05:56.006Z,98573.30
2023-11-12T08:08:27.902Z,98574.27
2023-11-12T08:11:02.581Z,98576.93
2023-11-12T08:13:34.249Z,98575.75
2023-11-12T08:16:06.621Z,98577.53
2023-11-12T08:18:38.603Z,98579.77
2023-11-12T08:21:11.526Z,98577.80
2023-11-12T08:23:43.361Z,98581.35
2023-11-12T08:26:16.084Z,98578.12
2023-11-12T08:28:48.735Z,98580.13
2023-11-12T08:31:20.467Z,98582.80
2023-11-12T08:33:53.006Z,98584.48
2023-11-12T08:36:24.830Z,98583.20
2023-11-12T08:38:57.250Z,98592.14
2023-11-12T08:41:29.983Z,98593.41
2023-11-12T08:44:01.674Z,98598.15
2023-11-12T08:46:33.446Z,98599.84
2023-11-12T08:49:07.497Z,98602.10
2023-11-12T08:51:39.345Z,98606.36
2023-11-12T08:54:11.519Z,98605.66
2023-11-12T08:56:43.273Z,98607.36
2023-11-12T08:59:15.069Z,98614.10
2023-11-12T09:01:47.708Z,98617.70
2023-11-12T09:04:19.585Z,98610.75
2023-11-12T09:06:51.455Z,98625.31
2023-11-12T09:09:23.172Z,98625.45
2023-11-12T09:11:57.604Z,98626.94
2023-11-12T09:14:29.920Z,98620.55
2023-11-12T09:17:02.346Z,98627.86
2023-11-12T09:19:34.064Z,98630.64
2023-11-12T09:22:05.891Z,98629.54
2023-11-12T09:24:43.023Z,98630.80
2023-11-12T09:27:19.953Z,98625.63
2023-11-12T09:29:52.852Z,98627.30
2023-11-12T09:32:24.734Z,98623.82
2023-11-12T09:34:56.445Z,98628.92
2023-11-12T09:37:28.249Z,98627.60
2023-11-12T09:40:00.855Z,98629.43
2023-11-12T09:42:32.906Z,98628.56
2023-11-12T09:45:07.036Z,98635.05
2023-11-12T09:47:57.801Z,98632.17
2023-11-12T09:50:31.868Z,98636.58
2023-11-12T09:53:06.965Z,98637.89
2023-11-12T09:55:38.754Z,98639.67
2023-11-12T09:58:10.413Z,98640.84
2023-11-12T10:00:44.667Z,98641.21
2023-11-12T10:03:16.546Z,98642.69
2023-11-12T10:05:48.954Z,98643.31
2023-11-12T10:08:22.286Z,98641.36
2023-11-12T10:10:54.011Z,98638.37
2023-11-12T10:13:36.900Z,98643.08
2023-11-12T10:16:31.339Z,98644.80
2023-11-12T10:19:15.228Z,98644.65
2023-11-12T10:21:55.557Z,98643.59
2023-11-12T10:24:32.104Z,98644.70
2023-11-12T10:27:06.482Z,98643.81
2023-11-12T10:29:38.800Z,98640.99
2023-11-12T10:32:26.023Z,98636.25
2023-11-12T10:34:57.839Z,98634.58
2023-11-12T10:37:29.543Z,98633.11
2023-11-12T10:40:08.277Z,98629.43
2023-11-12T10:42:40.982Z,98629.77
2023-11-12T10:45:17.642Z,98627.34
2023-11-12T10:47:52.522Z,98629.95
2023-11-12T10:50:29.506Z,98630.67
2023-11-12T10:53:01.720Z,98630.50
2023-11-12T10:55:35.009Z,98634.44
2023-11-12T10:58:09.745Z,98636.60
2023-11-12T11:00:42.032Z,98641.27
2023-11-12T11:03:14.149Z,98642.75
2023-11-12T11:05:46.054Z,98639.08
2023-11-12T11:08:18.953Z,98644.58
2023-11-12T11:10:52.371Z,98641.40
2023-11-12T11:13:41.747Z,98639.89
2023-11-12T11:16:49.793Z,98636.98
2023-11-12T11:19:44.517Z,98637.27
2023-11-12T11:22:24.986Z,98632.73
2023-11-12T11:24:58.085Z,98634.61
2023-11-12T11:27:31.033Z,98631.07
2023-11-12T11:30:13.558Z,98629.52
2023-11-12T11:32:56.349Z,98629.15
2023-11-12T11:35:30.406Z,98626.83
2023-11-12T11:38:12.848Z,98627.89
2023-11-12T11:40:59.668Z,98628.58
2023-11-12T11:43:33.275Z,98632.05
2023-11-12T11:46:11.637Z,98632.95
2023-11-12T11:48:43.582Z,98637.70
2023-11-12T11:51:38.651Z,98633.07
2023-11-12T11:54:17.934Z,98634.20
2023-11-12T11:56:51.378Z,98636.92
2023-11-12T11:59:24.315Z,98637.14
2023-11-12T12:02:00.654Z,98632.93
2023-11-12T12:04:34.069Z,98630.28
2023-11-12T12:07:06.186Z,98623.96
2023-11-12T12:09:38.309Z,98628.55
2023-11-12T12:12:10.014Z,98628.80
2023-11-12T12:14:42.446Z,98632.40
2023-11-12T12:17:15.074Z,98633.02
2023-11-12T12:19:52.588Z,98635.48
2023-11-12T12:22:28.811Z,98629.97
2023-11-12T12:25:02.192Z,98625.98
2023-11-12T12:27:34.044Z,98631.95
2023-11-12T12:30:09.275Z,98628.02
2023-11-12T12:32:41.041Z,98629.68
2023-11-12T12:35:22.133Z,98626.14
2023-11-12T12:38:06.937Z,98628.48
2023-11-12T12:40:38.883Z,98626.20
2023-11-12T12:43:12.185Z,98627.52
2023-11-12T12:45:57.670Z,98621.77
2023-11-12T12:48:31.202Z,98630.08
2023-11-12T12:51:04.404Z,98628.69
2023-11-12T12:53:36.077Z,98630.98
2023-11-12T12:56:08.076Z,98632.77
2023-11-12T12:58:39.925Z,98631.11
2023-11-12T13:01:12.520Z,98633.40
2023-11-12T13:03:47.987Z,98632.73
2023-11-12T13:06:20.400Z,98636.73
2023-11-12T13:08:52.273Z,98634.50
2023-11-12T13:11:27.180Z,98637.06
2023-11-12T13:13:58.965Z,98641.38
2023-11-12T13:16:32.806Z,98640.54
2023-11-12T13:19:05.915Z,98639.88
2023-11-12T13:21:51.665Z,98642.79
2023-11-12T13:24:30.630Z,98642.73
2023-11-12T13:27:02.662Z,98642.75
2023-11-12T13:29:34.426Z,98641.41
2023-11-12T13:32:09.231Z,98644.52
2023-11-12T13:34:45.155Z,98644.58
2023-11-12T13:37:17.075Z,98651.20
2023-11-12T13:39:50.323Z,98654.38
2023-11-12T13:42:22.663Z,98655.83
2023-11-12T13:44:55.084Z,98656.13
2023-11-12T13:47:46.867Z,98653.05
2023-11-12T13:50:26.494Z,98659.49
2023-11-12T13:53:11.050Z,98662.59
2023-11-12T13:55:44.825Z,98668.95
2023-11-12T13:58:17.633Z,98668.95
2023-11-12T14:00:52.862Z,98672.69
2023-11-12T14:03:28.720Z,98669.45
2023-11-12T14:06:01.525Z,98678.74
2023-11-12T14:08:33.315Z,98680.27
2023-11-12T14:11:12.945Z,98689.48
2023-11-12T14:13:47.615Z,98691.74
2023-11-12T14:16:24.725Z,98695.17
2023-11-12T14:19:13.695Z,98693.90
2023-11-12T14:21:51.010Z,98697.04
2023-11-12T14:24:27.566Z,98695.79
2023-11-12T14:27:02.302Z,98700.52
2023-11-12T14:29:39.172Z,98704.45
2023-11-12T14:32:13.808Z,98704.98
2023-11-12T14:34:59.973Z,98705.29
2023-11-12T14:37:49.921Z,98708.27
2023-11-12T14:40:32.485Z,98710.29
2023-11-12T14:43:08.380Z,98712.77
2023-11-12T14:45:45.878Z,98714.75
2023-11-12T14:48:20.821Z,98715.18
2023-11-12T14:51:09.290Z,98719.05
2023-11-12T14:53:45.864Z,98719.65
2023-11-12T14:56:21.759Z,98719.77
2023-11-12T14:58:56.036Z,98716.25
2023-11-12T15:01:28.152Z,98717.29
2023-11-12T15:04:00.627Z,98716.91
2023-11-12T15:06:32.367Z,98713.86
2023-11-12T15:09:08.829Z,98721.91
2023-11-12T15:11:41.955Z,98722.25
2023-11-12T15:14:13.777Z,98725.52
2023-11-12T15:16:45.591Z,98723.58
2023-11-12T15:19:17.410Z,98722.89
2023-11-12T15:21:49.298Z,98723.73
2023-11-12T15:24:24.041Z,98727.51
2023-11-12T15:26:55.766Z,98725.97
2023-11-12T15:29:27.646Z,98726.95
2023-11-12T15:31:59.377Z,98725.39
2023-11-12T15:34:31.124Z,98727.98
2023-11-12T15:37:02.786Z,98727.78
2023-11-12T15:39:34.615Z,98727.34
2023-11-12T15:42:09.221Z,98721.73
2023-11-12T15:44:41.129Z,98726.91
2023-11-12T15:47:14.371Z,98735.20
2023-11-12T15:49:48.089Z,98728.76
2023-11-12T15:52:21.715Z,98736.29
2023-11-12T15:54:55.447Z,98741.86
2023-11-12T15:57:27.486Z,98739.31
2023-11-12T15:59:59.708Z,98739.01
2023-11-12T16:02:31.478Z,98737.27
2023-11-12T16:05:04.151Z,98732.34
2023-11-12T16:07:36.046Z,98731.52
2023-11-12T16:10:10.082Z,98735.59
2023-11-12T16:12:42.526Z,98738.59
2023-11-12T16:15:16.980Z,98745.75
2023-11-12T16:17:50.587Z,98751.45
2023-11-12T16:20:22.525Z,98747.76
2023-11-12T16:22:54.333Z,98744.96
2023-11-12T16:25:26.216Z,98744.25
2023-11-12T16:27:57.920Z,98737.31
2023-11-12T16:30:30.003Z,98740.21
2023-11-12T16:33:01.699Z,98741.63
2023-11-12T16:35:33.673Z,98741.99
2023-11-12T16:38:08.345Z,98739.38
2023-11-12T16:40:40.632Z,98744.95
2023-11-12T16:43:13.784Z,98748.75
2023-11-12T16:45:45.739Z,98754.12
2023-11-12T16:48:17.659Z,98754.92
2023-11-12T16:50:49.322Z,98756.03
2023-11-12T16:53:22.073Z,98755.23
2023-11-12T16:55:55.693Z,98755.55
2023-11-12T16:58:27.405Z,98752.10
2023-11-12T17:00:59.142Z,98757.08
2023-11-12T17:03:31.360Z,98755.64
2023-11-12T17:06:03.424Z,98757.36
2023-11-12T17:08:35.123Z,98758.34
2023-11-12T17:11:07.046Z,98756.27
2023-11-12T17:13:38.721Z,98760.44
2023-11-12T17:16:11.021Z,98762.36
2023-11-12T17:18:42.745Z,98764.08
2023-11-12T17:21:14.487Z,98767.67
2023-11-12T17:23:48.856Z,98767.20
2023-11-12T17:26:20.555Z,98768.17
2023-11-12T17:28:52.283Z,98774.02
2023-11-12T17:31:23.971Z,98775.84
2023-11-12T17:33:58.513Z,98772.95
2023-11-12T17:36:30.431Z,98771.01
2023-11-12T17:39:02.135Z,98771.14
2023-11-12T17:41:34.553Z,98771.89
2023-11-12T17:44:08.642Z,98776.35
2023-11-12T17:46:40.544Z,98774.20
2023-11-12T17:49:13.051Z,98777.13
2023-11-12T17:51:44.898Z,98774.35
2023-11-12T17:54:17.380Z,98772.76
2023-11-12T17:56:49.101Z,98771.32
2023-11-12T17:59:21.752Z,98780.34
2023-11-12T18:01:53.810Z,98779.77
2023-11-12T18:04:25.647Z,98786.11
2023-11-12T18:06:58.776Z,98792.65
2023-11-12T18:09:30.429Z,98789.13
2023-11-12T18:12:02.071Z,98790.45
2023-11-12T18:14:34.424Z,98787.41
2023-11-12T18:17:06.159Z,98786.42
2023-11-12T18:19:37.825Z,98784.21
2023-11-12T18:22:11.013Z,98783.54
2023-11-12T18:24:45.060Z,98787.71
2023-11-12T18:27:16.700Z,98788.22
2023-11-12T18:29:48.555Z,98786.63
2023-11-12T18:32:20.341Z,98787.44
2023-11-12T18:34:51.997Z,98786.31
2023-11-12T18:37:24.465Z,98784.38
2023-11-12T18:39:56.173Z,98779.77
2023-11-12T18:42:28.255Z,98782.27
2023-11-12T18:44:59.903Z,98780.23
2023-11-12T18:47:32.491Z,98783.50
2023-11-12T18:50:04.803Z,98784.30
2023-11-12T18:52:36.516Z,98787.77
2023-11-12T18:55:09.503Z,98793.44
2023-11-12T18:57:42.627Z,98800.39
2023-11-12T19:00:15.674Z,98805.73
2023-11-12T19:02:48.200Z,98809.69
2023-11-12T19:05:20.009Z,98806.85
2023-11-12T19:07:51.701Z,98808.64
2023-11-12T19:10:24.095Z,98810.95
2023-11-12T19:12:55.983Z,98814.16
2023-11-12T19:15:27.718Z,98816.16
2023-11-12T19:17:59.471Z,98815.23
2023-11-12T19:20:32.293Z,98815.68
2023-11-12T19:23:04.470Z,98812.70
2023-11-12T19:25:40.245Z,98811.55
2023-11-12T19:28:12.112Z,98811.69
2023-11-12T19:30:43.989Z,98816.08
2023-11-12T19:33:15.874Z,98811.82
2023-11-12T19:35:47.651Z,98813.27
2023-11-12T19:38:19.318Z,98814.39
2023-11-12T19:40:52.932Z,98817.06
2023-11-12T19:43:25.506Z,98816.77
2023-11-12T19:45:57.211Z,98823.13
2023-11-12T19:48:28.875Z,98826.52
2023-11-12T19:51:00.829Z,98819.09
2023-11-12T19:53:32.514Z,98825.66
2023-11-12T19:56:04.868Z,98825.83
2023-11-12T19:58:37.845Z,98829.45
2023-11-12T20:01:09.647Z,98829.06
2023-11-12T20:03:42.075Z,98830.77
2023-11-12T20:06:14.292Z,98833.45
2023-11-12T20:08:45.960Z,98833.27
2023-11-12T20:11:19.793Z,98833.40
2023-11-12T20:13:53.848Z,98832.08
2023-11-12T20:16:25.555Z,98835.16
2023-11-12T20:18:57.389Z,98836.13
2023-11-12T20:21:29.286Z,98835.67
2023-11-12T20:24:00.933Z,98831.92
2023-11-12T20:26:33.041Z,98830.34
2023-11-12T20:29:04.668Z,98830.84
2023-11-12T20:31:36.475Z,98830.40
2023-11-12T20:34:11.518Z,98834.07
2023-11-12T20:36:43.305Z,98825.68
2023-11-12T20:39:17.850Z,98832.62
2023-11-12T20:41:52.032Z,98839.64
2023-11-12T20:44:25.064Z,98838.13
2023-11-12T20:46:57.007Z,98836.59
2023-11-12T20:49:28.757Z,98837.84
2023-11-12T20:52:00.674Z,98828.47
2023-11-12T20:54:33.206Z,98834.90
2023-11-12T20:57:07.419Z,98839.49
2023-11-12T20:59:39.465Z,98841.50
2023-11-12T21:02:18.848Z,98842.61
2023-11-12T21:04:57.103Z,98840.79
2023-11-12T21:07:29.707Z,98844.61
2023-11-12T21:10:01.570Z,98844.34
2023-11-12T21:12:33.432Z,98845.81
2023-11-12T21:15:07.589Z,98845.02
2023-11-12T21:17:46.868Z,98838.10
2023-11-12T21:20:28.485Z,98838.13
2023-11-12T21:23:00.231Z,98838.50
2023-11-12T21:25:35.022Z,98834.55
2023-11-12T21:28:25.193Z,98832.73
2023-11-12T21:31:18.056Z,98828.33
2023-11-12T21:33:55.555Z,98828.83
2023-11-12T21:36:47.615Z,98828.16
2023-11-12T21:39:39.802Z,98828.85
2023-11-12T21:42:52.665Z,98823.02
2023-11-12T21:45:29.464Z,98826.31
2023-11-12T21:48:04.810Z,98823.88
2023-11-12T21:50:40.419Z,98827.20
2023-11-12T21:53:12.264Z,98831.20
2023-11-12T21:55:46.085Z,98831.17
2023-11-12T21:58:19.141Z,98832.40
2023-11-12T22:01:02.047Z,98835.85
2023-11-12T22:04:09.763Z,98834.81
2023-11-12T22:06:51.380Z,98835.99
2023-11-12T22:09:31.073Z,98834.41
2023-11-12T22:12:06.013Z,98837.48
2023-11-12T22:14:41.584Z,98833.65
2023-11-12T22:17:13.526Z,98839.05
2023-11-12T22:19:45.318Z,98838.39
2023-11-12T22:22:17.135Z,98836.67
2023-11-12T22:24:56.051Z,98838.56
2023-11-12T22:27:34.561Z,98836.30
2023-11-12T22:30:09.084Z,98837.13
2023-11-12T22:32:50.814Z,98839.64
2023-11-12T22:35:23.644Z,98839.42
2023-11-12T22:37:55.445Z,98836.58
2023-11-12T22:40:28.265Z,98838.95
2023-11-12T22:43:01.173Z,98838.02
2023-11-12T22:45:43.583Z,98838.52
2023-11-12T22:48:15.311Z,98841.95
2023-11-12T22:50:47.148Z,98842.54
2023-11-12T22:53:28.046Z,98840.20
2023-11-12T22:56:00.532Z,98840.45
2023-11-12T22:58:32.550Z,98844.73
2023-11-12T23:01:26.899Z,98844.48
2023-11-12T23:03:58.724Z,98849.80
2023-11-12T23:06:50.597Z,98855.09
2023-11-12T23:09:30.025Z,98854.77
2023-11-12T23:12:04.441Z,98855.48
2023-11-12T23:14:42.738Z,98858.85
2023-11-12T23:17:36.610Z,98860.93
2023-11-12T23:20:12.228Z,98862.39
2023-11-12T23:22:45.533Z,98861.40
2023-11-12T23:25:37.173Z,98864.53
2023-11-12T23:28:11.081Z,98862.59
2023-11-12T23:31:03.414Z,98861.11
2023-11-12T23:33:39.149Z,98861.57
2023-11-12T23:36:19.371Z,98863.23
2023-11-12T23:38:51.743Z,98863.95
2023-11-12T23:41:29.283Z,98865.07
2023-11-12T23:44:01.504Z,98867.61
2023-11-12T23:46:34.272Z,98866.16
2023-11-12T23:49:14.921Z,98863.45
2023-11-12T23:51:48.584Z,98864.41
2023-11-12T23:54:20.333Z,98867.24
2023-11-12T23:57:12.875Z,98854.95
2023-11-12T23:59:47.787Z,98861.25
